Mr Aries — V7ML4 — position and weather

sailwx.info

Track history (hours):
 
Tides and Currents Weather Stations Pressure Air Temp Water Temp Dewpoint Dewpoint Depression Visibility Wind Speed Wind Dir Waves Ship Positions

Mr Aries

Last reported at 2017-Oct-19 01:28 UTC. Time now 2017-Oct-19 01:48 UTC.
Position N 57°42' E 010°40'.

Length 183 m; draft 11.2 m.

Type: Ship. MMSI: 538002869.

Date/timePositionNaut miles runAvg speedWind from/ knotsBaromVisibWave heightAir tempDewpointWater temp
2017-Oct-19 01:28N 57°42' E 010°40'0 0.0
2017-Oct-19 00:51N 57°42' E 010°40'0 0.7
2017-Oct-19 00:30N 57°42' E 010°40'2 3.4
2017-Oct-19 00:00N 57°41' E 010°42'611.2
2017-Oct-18 23:27N 57°40' E 010°53'612.5
2017-Oct-18 22:59N 57°38' E 011°04'612.4
2017-Oct-18 22:29N 57°35' E 011°13'612.8
2017-Oct-18 22:00N 57°30' E 011°21'612.4
2017-Oct-18 21:30N 57°25' E 011°28'612.5
2017-Oct-18 21:00N 57°19' E 011°32'612.2
2017-Oct-18 20:29N 57°13' E 011°35'712.4
2017-Oct-18 19:57N 57°07' E 011°40'612.2
2017-Oct-18 19:30N 57°02' E 011°43'812.0
2017-Oct-18 18:51N 56°55' E 011°47'611.4
2017-Oct-18 18:21N 56°49' E 011°51'411.1
2017-Oct-18 18:00N 56°46' E 011°53'9111.0
2017-Oct-18 09:41N 55°19' E 011°03'212.3
2017-Oct-18 09:30N 55°17' E 011°04'510.7
2017-Oct-18 09:00N 55°11' E 011°04'611.5
2017-Oct-18 08:30N 55°06' E 010°60'612.6
2017-Oct-18 08:00N 54°60' E 010°59'713.2
2017-Oct-18 07:30N 54°55' E 010°52'1013.6
2017-Oct-18 06:46N 54°45' E 010°47'3611.1
2017-Oct-18 03:32N 54°27' E 011°41'012.1
2017-Oct-18 03:30N 54°27' E 011°41'611.4
2017-Oct-18 03:00N 54°26' E 011°51'611.5
2017-Oct-18 02:30N 54°26' E 012°01'511.0
2017-Oct-18 02:00N 54°27' E 012°10'611.5
2017-Oct-18 01:30N 54°32' E 012°14'5 9.5
2017-Oct-18 01:00N 54°36' E 012°17'5211.6
2017-Oct-17 20:30N 54°58' E 013°39'712.0
2017-Oct-17 19:55N 55°01' E 013°50'711.9
2017-Oct-17 19:21N 55°03' E 014°01'511.5
2017-Oct-17 18:55N 55°06' E 014°08'511.8
2017-Oct-17 18:29N 55°10' E 014°14'611.7
2017-Oct-17 18:00N 55°15' E 014°20'611.6
2017-Oct-17 17:30N 55°19' E 014°26'711.7
2017-Oct-17 16:55N 55°25' E 014°34'511.6
2017-Oct-17 16:29N 55°27' E 014°41'611.5
2017-Oct-17 16:00N 55°30' E 014°50'611.5
2017-Oct-17 15:30N 55°33' E 014°59'711.5
2017-Oct-17 14:54N 55°35' E 015°10'511.7
2017-Oct-17 14:30N 55°38' E 015°17'611.3
2017-Oct-17 14:00N 55°40' E 015°27'611.5
2017-Oct-17 13:30N 55°41' E 015°37'611.5
2017-Oct-17 13:00N 55°42' E 015°47'611.6
2017-Oct-17 12:30N 55°44' E 015°57'611.6
2017-Oct-17 12:00N 55°45' E 016°07'611.5
2017-Oct-17 11:30N 55°47' E 016°16'611.6
2017-Oct-17 11:00N 55°48' E 016°26'611.4
2017-Oct-17 10:30N 55°49' E 016°36'611.6
2017-Oct-17 10:00N 55°51' E 016°46'611.6
2017-Oct-17 09:30N 55°52' E 016°56'611.7
2017-Oct-17 09:00N 55°54' E 017°07'29411.2
2017-Oct-16 06:39N 59°32' E 023°16'211.1
2017-Oct-16 06:29N 59°31' E 023°19'610.9
2017-Oct-16 05:57N 59°29' E 023°30'  
2017-Oct-10 06:37N 59°30' E 024°08'111.7
2017-Oct-10 06:30N 59°30' E 024°11'612.7
2017-Oct-10 06:01N 59°30' E 024°23'4 8.4
2017-Oct-10 05:31N 59°32' E 024°31'0 0.1
2017-Oct-10 04:58N 59°32' E 024°31'0 0.0
2017-Oct-10 04:28N 59°32' E 024°31'0 0.4
2017-Oct-10 03:58N 59°31' E 024°31'0 0.0
2017-Oct-10 03:28N 59°31' E 024°31'0 0.0
2017-Oct-10 02:58N 59°31' E 024°31'0 0.0
2017-Oct-10 02:28N 59°31' E 024°31'0 0.0
2017-Oct-10 01:58N 59°31' E 024°31'0 0.0
2017-Oct-10 01:28N 59°31' E 024°31'0 0.0
2017-Oct-10 00:58N 59°31' E 024°31'0 0.0
2017-Oct-10 00:28N 59°31' E 024°31'0 0.0
2017-Oct-09 23:58N 59°31' E 024°31'0 0.0
2017-Oct-09 23:28N 59°31' E 024°31'0 0.5
2017-Oct-09 23:01N 59°31' E 024°31'0 1.0
2017-Oct-09 22:30N 59°31' E 024°30'4 7.5
2017-Oct-09 22:01N 59°30' E 024°23'712.7
2017-Oct-09 21:29N 59°30' E 024°10'812.8
2017-Oct-09 20:53N 59°30' E 023°55'813.1
2017-Oct-09 20:18N 59°30' E 023°40'513.0
2017-Oct-09 19:57N 59°30' E 023°31'  
Track history (hours):
 
Tides and Currents Weather Stations Pressure Air Temp Water Temp Dewpoint Dewpoint Depression Visibility Wind Speed Wind Dir Waves Ship Positions

Mr Aries

Last reported at 2017-Oct-19 01:28 UTC. Time now 2017-Oct-19 01:48 UTC.
Position N 57°42' E 010°40'.

Length 183 m; draft 11.2 m.

Type: Ship. MMSI: 538002869.

Date/timePositionNaut miles runAvg speedWind from/ knotsBaromVisibWave heightAir tempDewpointWater temp
2017-Oct-19 01:28N 57°42' E 010°40'0 0.0
2017-Oct-19 00:51N 57°42' E 010°40'0 0.7
2017-Oct-19 00:30N 57°42' E 010°40'2 3.4
2017-Oct-19 00:00N 57°41' E 010°42'611.2
2017-Oct-18 23:27N 57°40' E 010°53'612.5
2017-Oct-18 22:59N 57°38' E 011°04'612.4
2017-Oct-18 22:29N 57°35' E 011°13'612.8
2017-Oct-18 22:00N 57°30' E 011°21'612.4
2017-Oct-18 21:30N 57°25' E 011°28'612.5
2017-Oct-18 21:00N 57°19' E 011°32'612.2
2017-Oct-18 20:29N 57°13' E 011°35'712.4
2017-Oct-18 19:57N 57°07' E 011°40'612.2
2017-Oct-18 19:30N 57°02' E 011°43'812.0
2017-Oct-18 18:51N 56°55' E 011°47'611.4
2017-Oct-18 18:21N 56°49' E 011°51'411.1
2017-Oct-18 18:00N 56°46' E 011°53'9111.0
2017-Oct-18 09:41N 55°19' E 011°03'212.3
2017-Oct-18 09:30N 55°17' E 011°04'510.7
2017-Oct-18 09:00N 55°11' E 011°04'611.5
2017-Oct-18 08:30N 55°06' E 010°60'612.6
2017-Oct-18 08:00N 54°60' E 010°59'713.2
2017-Oct-18 07:30N 54°55' E 010°52'1013.6
2017-Oct-18 06:46N 54°45' E 010°47'3611.1
2017-Oct-18 03:32N 54°27' E 011°41'012.1
2017-Oct-18 03:30N 54°27' E 011°41'611.4
2017-Oct-18 03:00N 54°26' E 011°51'611.5
2017-Oct-18 02:30N 54°26' E 012°01'511.0
2017-Oct-18 02:00N 54°27' E 012°10'611.5
2017-Oct-18 01:30N 54°32' E 012°14'5 9.5
2017-Oct-18 01:00N 54°36' E 012°17'5211.6
2017-Oct-17 20:30N 54°58' E 013°39'712.0
2017-Oct-17 19:55N 55°01' E 013°50'711.9
2017-Oct-17 19:21N 55°03' E 014°01'511.5
2017-Oct-17 18:55N 55°06' E 014°08'511.8
2017-Oct-17 18:29N 55°10' E 014°14'611.7
2017-Oct-17 18:00N 55°15' E 014°20'611.6
2017-Oct-17 17:30N 55°19' E 014°26'711.7
2017-Oct-17 16:55N 55°25' E 014°34'511.6
2017-Oct-17 16:29N 55°27' E 014°41'611.5
2017-Oct-17 16:00N 55°30' E 014°50'611.5
2017-Oct-17 15:30N 55°33' E 014°59'711.5
2017-Oct-17 14:54N 55°35' E 015°10'511.7
2017-Oct-17 14:30N 55°38' E 015°17'611.3
2017-Oct-17 14:00N 55°40' E 015°27'611.5
2017-Oct-17 13:30N 55°41' E 015°37'611.5
2017-Oct-17 13:00N 55°42' E 015°47'611.6
2017-Oct-17 12:30N 55°44' E 015°57'611.6
2017-Oct-17 12:00N 55°45' E 016°07'611.5
2017-Oct-17 11:30N 55°47' E 016°16'611.6
2017-Oct-17 11:00N 55°48' E 016°26'611.4
2017-Oct-17 10:30N 55°49' E 016°36'611.6
2017-Oct-17 10:00N 55°51' E 016°46'611.6
2017-Oct-17 09:30N 55°52' E 016°56'611.7
2017-Oct-17 09:00N 55°54' E 017°07'29411.2
2017-Oct-16 06:39N 59°32' E 023°16'211.1
2017-Oct-16 06:29N 59°31' E 023°19'610.9
2017-Oct-16 05:57N 59°29' E 023°30'  
2017-Oct-10 06:37N 59°30' E 024°08'111.7
2017-Oct-10 06:30N 59°30' E 024°11'612.7
2017-Oct-10 06:01N 59°30' E 024°23'4 8.4
2017-Oct-10 05:31N 59°32' E 024°31'0 0.1
2017-Oct-10 04:58N 59°32' E 024°31'0 0.0
2017-Oct-10 04:28N 59°32' E 024°31'0 0.4
2017-Oct-10 03:58N 59°31' E 024°31'0 0.0
2017-Oct-10 03:28N 59°31' E 024°31'0 0.0
2017-Oct-10 02:58N 59°31' E 024°31'0 0.0
2017-Oct-10 02:28N 59°31' E 024°31'0 0.0
2017-Oct-10 01:58N 59°31' E 024°31'0 0.0
2017-Oct-10 01:28N 59°31' E 024°31'0 0.0
2017-Oct-10 00:58N 59°31' E 024°31'0 0.0
2017-Oct-10 00:28N 59°31' E 024°31'0 0.0
2017-Oct-09 23:58N 59°31' E 024°31'0 0.0
2017-Oct-09 23:28N 59°31' E 024°31'0 0.5
2017-Oct-09 23:01N 59°31' E 024°31'0 1.0
2017-Oct-09 22:30N 59°31' E 024°30'4 7.5
2017-Oct-09 22:01N 59°30' E 024°23'712.7
2017-Oct-09 21:29N 59°30' E 024°10'812.8
2017-Oct-09 20:53N 59°30' E 023°55'813.1
2017-Oct-09 20:18N 59°30' E 023°40'513.0
2017-Oct-09 19:57N 59°30' E 023°31'  

Dump ship's entire track history